Time;durP1;ratioP1;P1;durP2;ratioP2;P2;SDS_P1;SDS_P2;PMS_P1;PMS_P2;Temp;Humidity;BMP_temperature;BMP_pressure;BME280_temperature;BME280_humidity;BME280_pressure;Samples;Min_cycle;Max_cycle;Signal;HPM_P1;HPM_P2
2021/10/01 00:00:47;;;;;;;2.53;1.98;;;7.00;99.90;;;;;;5062660;28;20099;-81
2021/10/01 00:03:13;;;;;;;3.58;1.73;;;7.00;99.90;;;;;;5062938;28;20029;-81
2021/10/01 00:05:39;;;;;;;3.88;2.17;;;6.90;99.90;;;;;;5059552;28;20021;-81
2021/10/01 00:08:06;;;;;;;1.50;1.38;;;6.90;99.90;;;;;;5051984;28;20045;-81
2021/10/01 00:10:33;;;;;;;3.83;2.47;;;6.90;99.90;;;;;;5048092;28;20041;-81
2021/10/01 00:12:59;;;;;;;3.67;2.70;;;6.90;99.90;;;;;;5060458;28;20033;-81
2021/10/01 00:15:27;;;;;;;2.70;1.88;;;6.90;99.90;;;;;;5046422;28;20045;-82
2021/10/01 00:17:55;;;;;;;7.13;2.28;;;6.90;99.90;;;;;;5044636;28;20041;-81
2021/10/01 00:20:22;;;;;;;3.90;1.83;;;6.90;99.90;;;;;;5060151;28;20462;-80
2021/10/01 00:22:48;;;;;;;3.67;2.40;;;6.90;99.90;;;;;;5059600;28;20041;-80
2021/10/01 00:25:14;;;;;;;3.00;2.42;;;7.00;99.90;;;;;;5060434;28;20048;-80
2021/10/01 00:27:41;;;;;;;2.97;1.77;;;7.10;99.90;;;;;;5072364;28;20037;-79
2021/10/01 00:30:09;;;;;;;2.17;1.95;;;7.10;99.90;;;;;;5059798;28;20040;-81
2021/10/01 00:32:35;;;;;;;3.20;1.88;;;7.00;99.90;;;;;;5063572;28;20044;-82
2021/10/01 00:35:01;;;;;;;3.47;1.38;;;6.90;99.90;;;;;;5061217;28;20497;-81
2021/10/01 00:37:28;;;;;;;2.88;1.63;;;6.80;99.90;;;;;;5059262;28;20029;-80
2021/10/01 00:39:54;;;;;;;1.98;1.70;;;6.70;99.90;;;;;;5039751;28;20049;-81
2021/10/01 00:42:20;;;;;;;7.03;2.45;;;6.70;99.90;;;;;;5057655;28;20054;-80
2021/10/01 00:44:47;;;;;;;2.28;1.83;;;6.70;99.90;;;;;;5056437;28;20045;-81
2021/10/01 00:47:14;;;;;;;2.05;1.85;;;6.60;99.90;;;;;;5043632;28;20044;-80
2021/10/01 00:49:42;;;;;;;3.38;2.47;;;6.60;99.90;;;;;;5050864;28;20052;-77
2021/10/01 00:52:09;;;;;;;4.07;2.38;;;6.60;99.90;;;;;;5072994;28;20458;-80
2021/10/01 00:54:36;;;;;;;2.00;1.80;;;6.50;99.90;;;;;;5061370;28;20459;-80
2021/10/01 00:57:02;;;;;;;2.72;1.50;;;6.40;99.90;;;;;;5059143;28;20041;-81
2021/10/01 00:59:29;;;;;;;3.20;1.75;;;6.40;99.90;;;;;;5072668;28;20028;-81
2021/10/01 01:01:56;;;;;;;6.18;2.10;;;6.30;99.90;;;;;;5043541;28;20067;-80
2021/10/01 01:04:22;;;;;;;2.78;1.98;;;6.30;99.90;;;;;;5063778;28;20056;-81
2021/10/01 01:07:17;;;;;;;2.30;1.83;;;6.30;99.90;;;;;;5062458;28;20041;-81
2021/10/01 01:10:05;;;;;;;4.20;2.80;;;6.20;99.90;;;;;;5042429;28;20052;-80
2021/10/01 01:12:42;;;;;;;2.78;1.95;;;6.10;99.90;;;;;;5039618;28;20394;-81
2021/10/01 01:15:16;;;;;;;3.22;1.85;;;6.10;99.90;;;;;;5054395;28;20041;-80
2021/10/01 01:17:48;;;;;;;2.53;1.90;;;6.10;99.90;;;;;;5066081;28;20033;-82
2021/10/01 01:20:37;;;;;;;5.72;2.28;;;6.00;99.90;;;;;;5038168;28;20044;-81
2021/10/01 01:23:19;;;;;;;3.03;2.05;;;6.00;99.90;;;;;;5059853;28;20489;-77
2021/10/01 01:25:56;;;;;;;2.65;2.10;;;6.00;99.90;;;;;;5064984;28;20036;-80
2021/10/01 01:28:41;;;;;;;2.08;1.67;;;5.90;99.90;;;;;;5055154;28;20391;-81
2021/10/01 01:31:32;;;;;;;3.03;1.90;;;5.90;99.90;;;;;;5036425;28;20391;-79
2021/10/01 01:34:01;;;;;;;2.25;2.05;;;5.80;99.90;;;;;;5063606;28;20037;-79
2021/10/01 01:36:30;;;;;;;3.55;2.00;;;5.90;99.90;;;;;;5036421;28;20048;-79
2021/10/01 01:38:59;;;;;;;4.25;1.95;;;5.80;99.90;;;;;;5054380;28;20033;-79
2021/10/01 01:41:31;;;;;;;1.90;1.63;;;5.80;99.90;;;;;;5052591;28;20047;-79
2021/10/01 01:43:59;;;;;;;2.65;2.05;;;5.70;99.90;;;;;;5051947;28;20045;-78
2021/10/01 01:46:26;;;;;;;3.10;2.42;;;5.70;99.90;;;;;;5050648;28;20055;-79
2021/10/01 01:49:02;;;;;;;3.63;2.33;;;5.70;99.90;;;;;;5048427;28;20045;-80
2021/10/01 01:51:30;;;;;;;2.47;2.28;;;5.70;99.90;;;;;;5019436;28;20400;-80
2021/10/01 01:53:58;;;;;;;4.10;2.38;;;5.60;99.90;;;;;;5036217;28;20029;-80
2021/10/01 01:56:25;;;;;;;2.17;1.88;;;5.50;99.90;;;;;;5051773;28;20049;-80
2021/10/01 01:58:52;;;;;;;2.13;1.45;;;5.50;99.90;;;;;;5035902;28;20048;-79
2021/10/01 02:01:35;;;;;;;3.63;2.33;;;5.40;99.90;;;;;;5051919;28;20489;-79
2021/10/01 02:04:10;;;;;;;2.30;2.10;;;5.50;99.90;;;;;;5051872;28;20037;-80
2021/10/01 02:06:37;;;;;;;3.38;2.25;;;5.60;99.90;;;;;;5051655;28;20482;-79
2021/10/01 02:09:04;;;;;;;3.10;1.70;;;5.50;99.90;;;;;;5035844;28;20045;-79
2021/10/01 02:11:36;;;;;;;1.83;1.70;;;5.50;99.90;;;;;;5021320;28;20394;-80
2021/10/01 02:14:04;;;;;;;3.42;2.38;;;5.40;99.90;;;;;;5042102;28;20057;-79
2021/10/01 02:16:32;;;;;;;3.05;2.20;;;5.40;99.90;;;;;;5061988;28;20037;-79
2021/10/01 02:19:00;;;;;;;3.28;2.20;;;5.40;99.90;;;;;;5055429;28;20112;-80
2021/10/01 02:21:30;;;;;;;3.15;2.58;;;5.40;99.90;;;;;;5050696;28;20048;-81
2021/10/01 02:23:58;;;;;;;2.60;1.92;;;5.30;99.90;;;;;;5049583;28;20489;-80
2021/10/01 02:26:34;;;;;;;4.88;2.75;;;5.30;99.90;;;;;;5053185;28;20037;-80
2021/10/01 02:29:10;;;;;;;2.67;2.13;;;5.30;99.90;;;;;;5053725;28;20063;-80
2021/10/01 02:31:44;;;;;;;4.47;2.60;;;5.30;99.90;;;;;;5051643;28;20040;-80
2021/10/01 02:34:11;;;;;;;3.00;2.10;;;5.20;99.90;;;;;;5034832;28;20041;-80
2021/10/01 02:36:37;;;;;;;2.17;1.55;;;5.00;99.90;;;;;;5035120;28;20041;-80
2021/10/01 02:39:03;;;;;;;5.20;1.98;;;5.00;99.90;;;;;;5034550;28;20036;-80
2021/10/01 02:41:30;;;;;;;2.75;1.67;;;5.00;99.90;;;;;;5035099;28;20060;-80
2021/10/01 02:43:56;;;;;;;2.88;2.10;;;5.00;99.90;;;;;;5039571;28;20041;-80
2021/10/01 02:46:22;;;;;;;2.45;2.25;;;5.00;99.90;;;;;;5045726;28;20144;-80
2021/10/01 02:48:52;;;;;;;2.85;2.20;;;5.00;99.90;;;;;;5051010;28;20045;-80
2021/10/01 02:51:23;;;;;;;2.38;2.17;;;4.90;99.90;;;;;;5051361;28;20037;-80
2021/10/01 02:54:06;;;;;;;4.50;2.33;;;4.90;99.90;;;;;;5034676;28;20398;-80
2021/10/01 02:56:37;;;;;;;6.03;2.53;;;4.90;99.90;;;;;;5035186;28;20060;-80
2021/10/01 02:59:06;;;;;;;9.40;2.55;;;4.90;99.90;;;;;;5035292;28;20048;-80
2021/10/01 03:01:35;;;;;;;3.22;2.47;;;4.80;99.90;;;;;;5040451;28;20041;-80
2021/10/01 03:04:08;;;;;;;5.25;2.80;;;4.90;99.90;;;;;;5051400;28;20390;-81
2021/10/01 03:06:39;;;;;;;3.42;1.95;;;4.90;99.90;;;;;;5036896;28;20051;-80
2021/10/01 03:09:07;;;;;;;3.60;2.42;;;4.90;99.90;;;;;;5062742;28;20406;-80
2021/10/01 03:11:38;;;;;;;2.45;2.22;;;4.90;99.90;;;;;;5050111;28;20064;-80
2021/10/01 03:14:07;;;;;;;5.18;2.33;;;4.90;99.90;;;;;;5052463;28;20037;-80
2021/10/01 03:16:36;;;;;;;2.40;2.00;;;4.80;99.90;;;;;;5050779;28;20044;-80
2021/10/01 03:19:05;;;;;;;5.35;2.17;;;4.70;99.90;;;;;;5050590;28;20036;-80
2021/10/01 03:21:33;;;;;;;2.20;2.00;;;4.80;99.90;;;;;;5034631;28;20068;-80
2021/10/01 03:24:00;;;;;;;2.67;2.13;;;4.80;99.90;;;;;;5052440;28;20028;-80
2021/10/01 03:26:29;;;;;;;2.55;2.22;;;4.80;99.90;;;;;;5034102;28;20048;-80
2021/10/01 03:28:55;;;;;;;3.70;2.60;;;4.80;99.90;;;;;;5037324;28;20045;-81
2021/10/01 03:31:26;;;;;;;3.47;2.53;;;4.90;99.90;;;;;;5050498;28;20477;-80
2021/10/01 03:33:54;;;;;;;2.85;2.10;;;4.90;99.90;;;;;;5050755;28;20045;-80
2021/10/01 03:36:22;;;;;;;4.25;2.88;;;5.00;99.90;;;;;;5033521;28;20398;-80
2021/10/01 03:38:55;;;;;;;5.35;3.13;;;4.90;99.90;;;;;;5034876;28;20033;-80
2021/10/01 03:41:23;;;;;;;3.42;2.30;;;4.90;99.90;;;;;;5035496;28;20056;-79
2021/10/01 03:43:50;;;;;;;5.47;3.65;;;4.90;99.90;;;;;;5049945;28;20049;-79
2021/10/01 03:46:16;;;;;;;5.40;3.55;;;4.90;99.90;;;;;;5032449;28;20045;-79
2021/10/01 03:48:42;;;;;;;5.43;3.92;;;5.00;99.90;;;;;;5033886;28;20028;-79
2021/10/01 03:51:09;;;;;;;4.78;3.15;;;5.10;99.90;;;;;;5034335;28;20041;-78
2021/10/01 03:53:37;;;;;;;4.53;3.28;;;5.10;99.90;;;;;;5049850;28;20056;-79
2021/10/01 03:56:07;;;;;;;5.25;3.88;;;5.10;99.90;;;;;;5034395;28;20045;-79
2021/10/01 03:58:34;;;;;;;5.85;4.38;;;5.10;99.90;;;;;;5052108;28;20489;-79
2021/10/01 04:01:00;;;;;;;3.97;3.50;;;5.10;99.90;;;;;;5045480;28;20142;-79
2021/10/01 04:03:26;;;;;;;4.57;4.10;;;5.10;99.90;;;;;;5050186;28;20049;-80
2021/10/01 04:05:55;;;;;;;3.97;3.60;;;5.00;99.90;;;;;;5042043;28;20044;-80
2021/10/01 04:08:22;;;;;;;4.82;4.32;;;4.90;99.90;;;;;;5048283;28;20041;-79
2021/10/01 04:10:49;;;;;;;4.40;4.00;;;4.90;99.90;;;;;;5033745;28;20040;-78
2021/10/01 04:13:16;;;;;;;4.72;4.25;;;5.00;99.90;;;;;;5033626;28;20041;-79
2021/10/01 04:15:49;;;;;;;5.40;4.43;;;5.00;99.90;;;;;;5050579;28;20051;-79
2021/10/01 04:18:17;;;;;;;6.68;5.38;;;5.00;99.90;;;;;;5049954;28;20383;-79
2021/10/01 04:20:45;;;;;;;5.20;4.53;;;5.00;99.90;;;;;;5018784;28;20041;-80
2021/10/01 04:23:13;;;;;;;4.63;4.22;;;4.90;99.90;;;;;;5053663;28;20051;-80
2021/10/01 04:25:52;;;;;;;4.43;4.00;;;4.90;99.90;;;;;;5062405;28;20060;-80
2021/10/01 04:28:20;;;;;;;5.65;5.15;;;4.90;99.90;;;;;;5052969;28;20041;-80
2021/10/01 04:30:51;;;;;;;6.13;5.40;;;4.90;99.90;;;;;;5038164;28;20040;-80
2021/10/01 04:33:22;;;;;;;5.22;4.72;;;4.90;99.90;;;;;;5037436;28;20048;-80
2021/10/01 04:35:50;;;;;;;5.07;4.57;;;5.00;99.90;;;;;;5053568;28;20048;-80
2021/10/01 04:38:19;;;;;;;5.00;4.50;;;4.90;99.90;;;;;;5052793;28;20033;-80
2021/10/01 04:40:47;;;;;;;5.88;4.60;;;4.90;99.90;;;;;;5058186;28;20025;-79
2021/10/01 04:43:14;;;;;;;4.80;4.32;;;4.90;99.90;;;;;;5053091;28;20123;-79
2021/10/01 04:46:00;;;;;;;4.43;4.03;;;4.90;99.90;;;;;;5055276;28;20064;-79
2021/10/01 04:48:26;;;;;;;5.05;4.55;;;5.10;99.90;;;;;;5037010;28;20045;-79
2021/10/01 04:50:53;;;;;;;5.10;4.45;;;5.20;99.90;;;;;;5037703;28;20364;-81
2021/10/01 04:53:20;;;;;;;6.38;5.78;;;5.30;99.90;;;;;;5039581;28;20045;-79
2021/10/01 04:55:46;;;;;;;7.22;4.82;;;5.20;99.90;;;;;;5037636;28;20048;-79
2021/10/01 04:58:14;;;;;;;4.60;3.85;;;5.10;99.90;;;;;;5037049;28;20041;-80
2021/10/01 05:01:12;;;;;;;4.80;3.92;;;4.90;99.90;;;;;;5030972;28;20041;-80
2021/10/01 05:03:57;;;;;;;5.57;3.90;;;5.00;99.90;;;;;;5061568;28;20466;-81
2021/10/01 05:06:46;;;;;;;5.53;4.75;;;4.90;99.90;;;;;;5035261;28;20048;-80
2021/10/01 05:09:31;;;;;;;4.20;3.28;;;4.90;99.90;;;;;;5054545;28;20045;-80
2021/10/01 05:12:16;;;;;;;5.80;4.22;;;4.80;99.90;;;;;;5055042;28;20348;-80
2021/10/01 05:15:15;;;;;;;5.45;4.95;;;4.80;99.90;;;;;;5017816;28;20060;-80
2021/10/01 05:18:00;;;;;;;5.28;3.97;;;4.80;99.90;;;;;;5064931;28;20040;-80
2021/10/01 05:20:45;;;;;;;4.60;4.13;;;4.90;99.90;;;;;;5062033;28;20471;-80
2021/10/01 05:23:17;;;;;;;13.02;4.72;;;4.90;99.90;;;;;;5035956;28;20052;-80
2021/10/01 05:25:43;;;;;;;6.55;5.00;;;5.00;99.90;;;;;;5020285;28;20045;-80
2021/10/01 05:28:10;;;;;;;4.70;3.83;;;5.00;99.90;;;;;;5054634;28;20033;-77
2021/10/01 05:30:36;;;;;;;4.72;4.00;;;5.00;99.90;;;;;;5054415;28;20033;-80
2021/10/01 05:33:06;;;;;;;4.95;4.00;;;5.00;99.90;;;;;;5053526;28;20642;-80
2021/10/01 05:35:36;;;;;;;3.53;3.20;;;5.00;99.90;;;;;;5053898;28;20044;-80
2021/10/01 05:38:03;;;;;;;3.90;2.72;;;4.90;99.90;;;;;;5053729;28;20064;-80
2021/10/01 05:40:30;;;;;;;5.93;3.65;;;4.90;99.90;;;;;;5051707;28;20041;-80
2021/10/01 05:42:56;;;;;;;8.93;3.45;;;4.90;99.90;;;;;;5036304;28;20060;-80
2021/10/01 05:45:22;;;;;;;3.38;3.05;;;4.80;99.90;;;;;;5038047;28;20045;-80
2021/10/01 05:48:08;;;;;;;2.78;2.30;;;4.70;99.90;;;;;;5060549;28;20036;-78
2021/10/01 05:50:58;;;;;;;5.10;3.75;;;4.70;99.90;;;;;;5060488;28;20036;-79
2021/10/01 05:56:27;;;;;;;5.28;3.75;;;4.90;99.90;;;;;;5052830;28;20037;-79
2021/10/01 05:59:13;;;;;;;5.05;3.25;;;4.90;99.90;;;;;;5053488;28;20049;-80
2021/10/01 06:01:40;;;;;;;3.63;2.60;;;5.00;99.90;;;;;;5051568;28;20044;-79
2021/10/01 06:04:06;;;;;;;3.15;2.83;;;5.10;99.90;;;;;;5053460;28;20029;-79
2021/10/01 06:06:33;;;;;;;3.20;2.80;;;5.10;99.90;;;;;;5035922;28;20040;-81
2021/10/01 06:09:00;;;;;;;3.17;2.70;;;5.10;99.90;;;;;;5054051;28;20036;-81
2021/10/01 06:11:26;;;;;;;3.70;3.25;;;5.20;99.90;;;;;;5056112;28;20037;-81
2021/10/01 06:13:53;;;;;;;7.10;3.53;;;5.30;99.90;;;;;;5030823;28;20043;-80
2021/10/01 06:16:19;;;;;;;2.88;2.55;;;5.40;99.90;;;;;;5071623;28;20041;-80
2021/10/01 06:18:45;;;;;;;3.30;3.03;;;5.40;99.90;;;;;;5076191;28;20036;-81
2021/10/01 06:21:11;;;;;;;3.80;2.63;;;5.60;99.90;;;;;;5067659;28;20036;-79
2021/10/01 06:23:37;;;;;;;5.97;3.47;;;5.80;99.90;;;;;;5083859;28;20048;-81
2021/10/01 06:26:05;;;;;;;4.13;3.05;;;6.00;99.90;;;;;;5065814;28;20037;-81
2021/10/01 06:28:32;;;;;;;2.90;2.40;;;6.40;99.90;;;;;;5061976;28;20029;-81
2021/10/01 06:31:01;;;;;;;2.88;2.65;;;6.50;99.90;;;;;;5069116;28;20024;-80
2021/10/01 06:33:29;;;;;;;17.60;13.68;;;6.70;99.90;;;;;;5064722;28;20020;-81
2021/10/01 06:35:55;;;;;;;4.55;4.15;;;7.40;99.90;;;;;;5069833;28;20044;-80
2021/10/01 06:38:21;;;;;;;4.88;4.47;;;8.00;99.90;;;;;;5068302;28;20474;-82
2021/10/01 06:40:48;;;;;;;9.43;7.38;;;8.50;99.90;;;;;;5051631;28;20056;-81
2021/10/01 06:43:16;;;;;;;4.30;3.90;;;9.10;99.60;;;;;;5055402;28;20028;-80
2021/10/01 06:45:45;;;;;;;3.95;2.78;;;9.30;97.40;;;;;;5055807;28;20470;-79
2021/10/01 06:48:19;;;;;;;2.35;2.15;;;9.50;96.50;;;;;;5053501;28;20403;-78
2021/10/01 08:20:41;;;;;;;2.80;1.00;;;15.40;69.30;;;;;;5059201;28;20036;-80
2021/10/01 08:23:09;;;;;;;2.58;1.27;;;15.40;70.20;;;;;;5038665;28;20052;-81
2021/10/01 08:25:36;;;;;;;2.40;1.58;;;15.20;68.90;;;;;;5055003;28;20045;-80
2021/10/01 08:28:03;;;;;;;2.45;1.10;;;14.40;72.40;;;;;;5055283;28;20037;-82
2021/10/01 08:30:40;;;;;;;1.70;1.05;;;14.60;70.70;;;;;;5053987;28;20033;-80
2021/10/01 08:33:06;;;;;;;2.97;1.25;;;15.40;68.70;;;;;;5058937;28;20052;-81
2021/10/01 08:35:33;;;;;;;1.73;1.00;;;15.60;69.50;;;;;;5068378;28;20040;-81
2021/10/01 08:37:59;;;;;;;1.70;1.00;;;15.90;67.40;;;;;;5054876;28;20379;-79
2021/10/01 08:40:26;;;;;;;2.53;1.40;;;16.40;65.70;;;;;;5055198;28;20041;-81
2021/10/01 08:42:54;;;;;;;1.67;1.13;;;16.60;65.80;;;;;;5055636;28;20052;-80
2021/10/01 08:45:23;;;;;;;1.48;1.25;;;17.00;64.80;;;;;;5055176;28;20041;-79
2021/10/01 08:47:50;;;;;;;2.78;1.38;;;16.80;63.70;;;;;;5057219;28;20044;-81
2021/10/01 08:50:20;;;;;;;2.35;1.30;;;17.40;64.30;;;;;;5070775;28;20036;-82
2021/10/01 08:52:50;;;;;;;2.17;1.30;;;18.10;62.30;;;;;;5039576;28;20045;-82
2021/10/01 08:55:17;;;;;;;2.85;1.38;;;18.00;60.20;;;;;;5051936;28;20049;-81
2021/10/01 08:57:43;;;;;;;2.25;1.23;;;17.20;62.50;;;;;;5054805;28;20037;-83
2021/10/01 09:00:16;;;;;;;1.65;1.15;;;17.40;62.20;;;;;;5055351;28;20040;-80
2021/10/01 09:02:43;;;;;;;2.33;1.13;;;17.50;61.10;;;;;;5055575;28;20033;-81
2021/10/01 09:05:09;;;;;;;1.00;0.90;;;16.30;64.00;;;;;;5054745;28;20041;-82
2021/10/01 09:07:36;;;;;;;2.22;1.40;;;16.20;64.90;;;;;;5060845;28;20040;-82
2021/10/01 09:10:09;;;;;;;2.40;1.50;;;16.70;63.90;;;;;;5052352;28;20041;-81
2021/10/01 09:12:35;;;;;;;2.60;1.10;;;16.20;65.40;;;;;;5039379;28;20029;-81
2021/10/01 09:15:02;;;;;;;3.45;1.40;;;16.50;65.40;;;;;;5037511;28;20040;-81
2021/10/01 09:17:33;;;;;;;3.47;1.00;;;17.10;63.40;;;;;;5037027;28;20056;-82
2021/10/01 09:20:00;;;;;;;1.75;1.10;;;17.60;61.80;;;;;;5037539;28;20044;-82
2021/10/01 09:22:30;;;;;;;7.50;1.10;;;17.30;62.10;;;;;;5053236;28;20032;-82
2021/10/01 09:25:21;;;;;;;0.98;0.90;;;17.20;61.80;;;;;;5055221;28;20049;-81
2021/10/01 09:27:52;;;;;;;3.22;1.48;;;17.40;60.80;;;;;;5038391;28;20041;-83
2021/10/01 09:30:21;;;;;;;3.13;1.33;;;17.00;61.30;;;;;;5047235;28;20037;-83
2021/10/01 09:33:04;;;;;;;2.30;1.33;;;16.80;62.90;;;;;;5055679;28;20029;-80
2021/10/01 09:35:31;;;;;;;3.40;1.40;;;16.80;61.70;;;;;;5037173;28;20037;-80
2021/10/01 09:38:14;;;;;;;6.65;1.73;;;16.60;63.30;;;;;;5054543;28;20044;-80
2021/10/01 09:40:41;;;;;;;2.45;1.30;;;16.60;64.00;;;;;;5054636;28;20470;-81
2021/10/01 09:43:29;;;;;;;2.60;1.23;;;16.60;61.20;;;;;;5054565;28;20040;-80
2021/10/01 09:46:13;;;;;;;4.53;1.10;;;16.40;63.10;;;;;;5036099;28;20487;-80
2021/10/01 09:48:40;;;;;;;2.22;1.00;;;16.30;62.80;;;;;;5071395;28;20040;-80
2021/10/01 09:51:09;;;;;;;1.27;0.90;;;16.20;62.70;;;;;;5054159;28;20036;-82
2021/10/01 09:53:47;;;;;;;2.58;1.27;;;15.90;62.60;;;;;;5053549;28;20049;-81
2021/10/01 09:56:27;;;;;;;3.80;0.93;;;16.10;63.70;;;;;;5053733;28;20048;-81
2021/10/01 09:59:11;;;;;;;5.55;1.40;;;16.40;62.20;;;;;;5053877;28;20033;-80
2021/10/01 10:02:08;;;;;;;2.55;1.05;;;16.40;61.60;;;;;;5053435;28;20033;-81
2021/10/01 10:04:43;;;;;;;1.92;1.10;;;16.10;61.10;;;;;;5055341;28;20032;-81
2021/10/01 10:07:20;;;;;;;3.78;1.33;;;16.10;64.00;;;;;;5053479;28;20033;-80
2021/10/01 10:09:55;;;;;;;1.55;0.98;;;16.10;61.20;;;;;;5053312;28;20052;-80
2021/10/01 10:12:24;;;;;;;3.35;1.40;;;16.20;60.70;;;;;;5053218;28;20025;-80
2021/10/01 10:14:53;;;;;;;2.97;1.20;;;16.00;61.00;;;;;;5051702;28;20053;-81
2021/10/01 10:17:24;;;;;;;5.95;1.40;;;16.00;61.90;;;;;;5054096;28;20037;-80
2021/10/01 10:19:59;;;;;;;1.88;0.95;;;16.30;60.60;;;;;;5061942;28;20035;-80
2021/10/01 10:22:29;;;;;;;6.38;1.08;;;16.50;61.00;;;;;;5058570;28;20032;-81
2021/10/01 10:24:55;;;;;;;2.92;1.10;;;16.60;59.90;;;;;;5053879;28;20091;-80
2021/10/01 10:27:24;;;;;;;2.72;1.38;;;16.60;60.30;;;;;;5053295;28;20037;-80
2021/10/01 10:29:52;;;;;;;1.70;0.90;;;16.60;60.00;;;;;;5054380;28;20047;-82
2021/10/01 10:32:19;;;;;;;1.23;0.93;;;16.60;60.80;;;;;;5043964;28;20044;-81
2021/10/01 10:35:00;;;;;;;2.10;0.90;;;16.70;60.20;;;;;;5053743;28;20443;-80
2021/10/01 10:37:35;;;;;;;8.02;0.90;;;16.40;60.30;;;;;;5053048;28;20036;-80
2021/10/01 10:40:08;;;;;;;1.73;1.10;;;16.30;61.50;;;;;;5053269;28;20028;-81
2021/10/01 10:42:44;;;;;;;2.13;1.10;;;16.50;60.70;;;;;;5038712;28;20041;-81
2021/10/01 10:45:23;;;;;;;0.88;0.77;;;16.60;59.80;;;;;;5053679;28;20037;-81
2021/10/01 10:48:11;;;;;;;3.50;0.98;;;16.70;59.80;;;;;;5055255;28;20034;-81
2021/10/01 10:50:44;;;;;;;1.10;0.75;;;16.70;60.50;;;;;;5055283;28;20073;-79
2021/10/01 10:53:16;;;;;;;3.85;1.30;;;16.90;60.10;;;;;;5067847;28;20037;-79
2021/10/01 10:55:53;;;;;;;2.53;1.13;;;16.80;59.60;;;;;;5072731;28;20059;-80
2021/10/01 10:58:22;;;;;;;2.95;1.40;;;16.80;61.20;;;;;;5057053;28;20043;-79
2021/10/01 11:00:54;;;;;;;1.98;0.80;;;16.90;59.60;;;;;;5074501;28;20029;-80
2021/10/01 11:03:23;;;;;;;1.63;0.93;;;17.10;59.90;;;;;;5058677;28;20033;-81
2021/10/01 11:06:08;;;;;;;1.75;1.00;;;17.20;58.90;;;;;;5053632;28;20032;-81
2021/10/01 11:08:36;;;;;;;2.25;1.17;;;17.10;57.80;;;;;;5053222;28;20040;-80
2021/10/01 11:11:03;;;;;;;1.75;0.80;;;17.10;58.60;;;;;;5053492;28;20029;-81
2021/10/01 11:13:34;;;;;;;2.22;0.90;;;17.30;58.70;;;;;;5051756;28;20037;-82
2021/10/01 11:16:09;;;;;;;1.98;1.00;;;17.60;58.60;;;;;;5054448;28;20052;-81
2021/10/01 11:18:56;;;;;;;2.25;1.02;;;17.60;57.90;;;;;;5048028;28;20041;-82
2021/10/01 11:21:25;;;;;;;1.23;0.70;;;17.60;57.40;;;;;;5054313;28;20032;-82
2021/10/01 11:24:16;;;;;;;3.28;0.63;;;17.40;57.60;;;;;;5053760;28;20133;-81
2021/10/01 11:26:51;;;;;;;1.48;0.95;;;17.50;57.50;;;;;;5043996;28;20044;-82
2021/10/01 11:29:26;;;;;;;5.80;1.00;;;17.60;57.20;;;;;;5053189;28;20044;-82
2021/10/01 11:31:57;;;;;;;1.55;0.80;;;17.60;56.60;;;;;;5052865;28;20025;-81
2021/10/01 11:34:37;;;;;;;0.93;0.60;;;17.60;56.50;;;;;;5043957;28;20041;-80
2021/10/01 11:37:04;;;;;;;1.60;0.95;;;17.70;56.60;;;;;;5052626;28;20045;-81
2021/10/01 11:39:34;;;;;;;1.48;0.88;;;17.70;57.50;;;;;;5052861;28;20463;-82
2021/10/01 11:42:00;;;;;;;;;;;17.80;57.30;;;;;;5053755;28;20029;-81
2021/10/01 11:44:27;;;;;;;1.52;0.50;;;18.00;57.40;;;;;;5052220;28;19908;-80
2021/10/01 11:46:55;;;;;;;1.75;1.00;;;18.00;55.90;;;;;;5052338;28;20053;-80
2021/10/01 11:49:27;;;;;;;1.40;0.90;;;18.00;55.70;;;;;;5053712;28;20390;-80
2021/10/01 11:52:02;;;;;;;1.58;0.70;;;17.90;55.00;;;;;;5054130;28;20032;-82
2021/10/01 11:54:29;;;;;;;2.45;0.80;;;17.90;56.60;;;;;;5051522;28;20041;-80
2021/10/01 11:57:02;;;;;;;1.50;0.70;;;18.10;54.80;;;;;;5066963;28;20055;-82
2021/10/01 12:00:01;;;;;;;2.22;0.88;;;18.10;56.00;;;;;;5034928;28;20045;-81
2021/10/01 12:02:40;;;;;;;1.40;0.60;;;18.20;55.80;;;;;;5052559;28;20332;-81
2021/10/01 12:05:36;;;;;;;6.28;1.08;;;18.30;54.70;;;;;;5052341;28;20037;-82
2021/10/01 12:08:08;;;;;;;1.50;1.15;;;18.30;55.10;;;;;;5012379;28;20044;-80
2021/10/01 12:10:44;;;;;;;3.20;1.10;;;18.60;54.00;;;;;;5052324;28;20044;-80
2021/10/01 12:13:10;;;;;;;3.42;0.77;;;18.20;53.20;;;;;;5056649;28;20041;-80
2021/10/01 12:15:37;;;;;;;5.15;0.90;;;18.00;54.90;;;;;;5053452;28;20072;-80
2021/10/01 12:18:28;;;;;;;2.78;1.00;;;18.10;54.40;;;;;;5035507;28;20096;-80
2021/10/01 12:20:55;;;;;;;2.53;0.63;;;18.20;54.30;;;;;;5051515;28;20037;-80
2021/10/01 12:23:43;;;;;;;1.15;0.70;;;18.50;53.70;;;;;;5052166;28;20032;-80
2021/10/01 12:26:33;;;;;;;2.97;0.93;;;18.70;53.00;;;;;;5034336;28;20085;-80
2021/10/01 12:29:14;;;;;;;0.47;0.40;;;18.70;52.60;;;;;;5051866;28;20044;-79
2021/10/01 12:31:46;;;;;;;1.50;0.60;;;18.70;51.80;;;;;;5055030;28;20036;-81
2021/10/01 12:34:24;;;;;;;0.65;0.60;;;18.70;52.60;;;;;;5068752;28;20029;-80
2021/10/01 12:36:54;;;;;;;2.10;0.85;;;18.80;51.80;;;;;;5052182;28;20382;-79
2021/10/01 12:39:24;;;;;;;0.98;0.70;;;18.70;52.10;;;;;;5051397;28;20024;-79
2021/10/01 12:41:57;;;;;;;;;;;18.70;51.90;;;;;;5053790;28;20052;-79
2021/10/01 12:44:25;;;;;;;1.13;0.52;;;18.60;51.60;;;;;;5072242;28;20362;-79
2021/10/01 12:46:54;;;;;;;1.90;0.60;;;18.60;51.90;;;;;;5054910;28;20044;-80
2021/10/01 12:49:28;;;;;;;1.42;0.73;;;18.90;51.70;;;;;;5053618;28;20459;-78
2021/10/01 12:52:21;;;;;;;2.22;1.15;;;19.10;52.20;;;;;;5054702;28;20041;-79
2021/10/01 12:54:50;;;;;;;0.88;0.60;;;19.30;51.90;;;;;;5046325;28;20048;-79
2021/10/01 12:57:24;;;;;;;3.00;0.77;;;19.50;51.80;;;;;;5055117;28;20482;-79
2021/10/01 13:00:24;;;;;;;2.22;0.85;;;19.40;50.90;;;;;;5055285;28;20095;-79
2021/10/01 13:02:51;;;;;;;1.33;0.52;;;19.10;52.40;;;;;;5055125;28;20052;-80
2021/10/01 13:05:21;;;;;;;6.50;0.82;;;19.20;52.30;;;;;;5036967;28;20049;-80
2021/10/01 13:07:52;;;;;;;1.95;0.82;;;19.30;51.90;;;;;;5054768;28;20033;-81
2021/10/01 13:10:24;;;;;;;1.50;0.60;;;19.30;52.80;;;;;;5054232;28;20040;-80
2021/10/01 13:12:52;;;;;;;1.45;0.85;;;19.20;51.80;;;;;;5036239;28;20044;-80
2021/10/01 13:15:40;;;;;;;1.35;0.90;;;19.00;52.00;;;;;;5054248;28;20036;-80
2021/10/01 13:21:10;;;;;;;5.93;0.98;;;18.90;52.10;;;;;;5053968;28;20037;-81
2021/10/01 13:23:56;;;;;;;1.77;0.90;;;18.90;52.20;;;;;;5053990;28;20048;-79
2021/10/01 13:26:39;;;;;;;1.42;0.77;;;18.80;52.60;;;;;;5054352;28;20036;-80
2021/10/01 13:29:10;;;;;;;1.58;0.73;;;18.90;53.00;;;;;;5054671;28;20040;-81
2021/10/01 13:31:43;;;;;;;1.42;0.68;;;19.00;53.30;;;;;;5054146;28;20493;-80
2021/10/01 13:34:11;;;;;;;2.90;0.90;;;19.10;53.30;;;;;;5052482;28;20037;-80
2021/10/01 13:36:38;;;;;;;2.05;0.75;;;19.10;53.60;;;;;;5053183;28;20056;-80
2021/10/01 13:39:05;;;;;;;3.45;0.90;;;19.10;53.10;;;;;;5054163;28;20040;-79
2021/10/01 13:41:33;;;;;;;1.13;0.70;;;19.00;52.80;;;;;;5053993;28;20033;-82
2021/10/01 13:43:59;;;;;;;1.25;0.82;;;18.90;53.80;;;;;;5053770;28;20040;-79
2021/10/01 13:46:26;;;;;;;2.30;1.20;;;18.90;53.90;;;;;;5053833;28;20529;-80
2021/10/01 13:48:53;;;;;;;4.22;0.55;;;19.20;54.00;;;;;;5051350;28;20025;-78
2021/10/01 13:51:20;;;;;;;8.98;1.08;;;19.40;54.00;;;;;;5052503;28;20041;-79
2021/10/01 13:53:47;;;;;;;2.05;0.80;;;19.60;53.90;;;;;;5040023;28;20036;-79
2021/10/01 13:56:14;;;;;;;1.05;0.60;;;19.70;54.30;;;;;;5054271;28;20041;-79
2021/10/01 13:58:40;;;;;;;1.17;0.93;;;19.70;53.00;;;;;;5053634;28;20257;-80
2021/10/01 14:01:06;;;;;;;1.30;0.70;;;19.50;53.70;;;;;;5053801;28;20033;-80
2021/10/01 14:03:33;;;;;;;3.83;1.08;;;19.60;54.10;;;;;;5053550;28;20032;-79
2021/10/01 14:05:59;;;;;;;1.17;0.77;;;19.50;53.70;;;;;;5035819;28;20033;-80
2021/10/01 14:08:26;;;;;;;1.38;0.80;;;19.40;55.10;;;;;;5052586;28;20041;-79
2021/10/01 14:10:53;;;;;;;2.15;1.05;;;19.50;53.60;;;;;;5053438;28;20383;-79
2021/10/01 14:13:19;;;;;;;1.20;0.88;;;19.40;54.20;;;;;;5053616;28;20040;-79
2021/10/01 14:15:48;;;;;;;1.23;0.75;;;19.30;54.00;;;;;;5053016;28;20059;-79
2021/10/01 14:18:18;;;;;;;4.65;0.93;;;19.10;53.90;;;;;;5055816;28;20029;-78
2021/10/01 14:20:44;;;;;;;5.28;0.77;;;19.20;53.90;;;;;;5063976;28;20032;-80
2021/10/01 14:23:12;;;;;;;0.52;0.50;;;19.30;54.10;;;;;;5061028;28;20024;-80
2021/10/01 14:25:39;;;;;;;1.23;0.90;;;19.40;54.10;;;;;;5053735;28;20036;-78
2021/10/01 14:28:07;;;;;;;2.90;1.00;;;19.40;54.00;;;;;;5035450;28;20045;-77
2021/10/01 14:30:35;;;;;;;0.88;0.60;;;19.40;53.80;;;;;;5052470;28;20028;-76
2021/10/01 14:33:02;;;;;;;1.52;0.85;;;19.30;54.20;;;;;;5053254;28;20032;-77
2021/10/01 14:35:29;;;;;;;0.98;0.68;;;19.40;53.60;;;;;;5052651;28;20029;-77
2021/10/01 14:37:55;;;;;;;1.33;0.75;;;19.10;53.40;;;;;;5036142;28;20029;-77
2021/10/01 14:40:22;;;;;;;1.23;0.60;;;19.10;54.60;;;;;;5053561;28;20029;-77
2021/10/01 14:42:48;;;;;;;1.15;0.88;;;19.10;54.40;;;;;;5057109;28;20037;-78
2021/10/01 14:45:16;;;;;;;1.80;0.80;;;19.20;53.10;;;;;;5056940;28;20037;-78
2021/10/01 14:47:42;;;;;;;1.05;0.73;;;19.30;53.80;;;;;;5055657;28;20033;-79
2021/10/01 14:50:12;;;;;;;1.55;0.77;;;19.50;52.30;;;;;;5055014;28;20044;-79